Flag for USA

Past Weather in 38°37'02.9"N, 122°51'59.0"W, USA — Yesterday and Last 2 Weeks

Currently: 69 °F. Sunny. (Weather station: Santa Rosa Sonoma County Airport, USA). See more current weather

Past Weather in 38°37'02.9"N, 122°51'59.0"W — Graph

°F

38°37'02.9"N, 122°51'59.0"W Temperature Yesterday

Maximum temperature yesterday: 77 °F (at 1:53 pm)
Minimum temperature yesterday: 54 °F (at 1:53 am)
Average temperature yesterday: 61 °F

High & Low Weather Summary for the Past Weeks

 TemperatureHumidityPressure
High104 °F (Jul 2, 2:53 pm)100% (Jul 3, 3:53 am)30.07 "Hg (Jul 3, 3:53 am)
Low54 °F (Jul 5, 3:53 am)15% (Jul 2, 4:53 pm)29.72 "Hg (Jul 2, 6:53 pm)
Average71 °F67%29.86 "Hg
* Reported Jun 29 5:53 pm — Jul 14 5:53 pm, 38°37'02.9"N, 122°51'59.0"W. Weather by CustomWeather, © 2024

Note: Actual official high and low records may vary slightly from our data, if they occured in-between our weather recording intervals... More about our weather records

38°37'02.9"N, 122°51'59.0"W Weather History for the Previous 24 Hours

Scroll right to see more
 ConditionsComfort  
Time TempWeatherWind HumidityBarometerVisibility
5:53 pm
Sun, Jul 14
72 °FSunny.13 mph55%29.98 "Hg10 mi
4:53 pm75 °FSunny.13 mph50%29.98 "Hg10 mi
3:53 pm77 °FSunny.15 mph45%29.99 "Hg10 mi
2:53 pm78 °FSunny.15 mph46%30.00 "Hg10 mi
1:53 pm80 °FSunny.10 mph45%30.01 "Hg10 mi
12:53 pm76 °FSunny.N/A48%30.02 "Hg10 mi
11:53 am71 °FSunny.3 mph59%30.04 "Hg10 mi
10:53 am67 °FPassing clouds.5 mph68%30.05 "Hg10 mi
10:15 am64 °FScattered clouds.3 mph73%30.07 "Hg10 mi
9:53 am61 °FPartly sunny.5 mph81%30.05 "Hg10 mi
8:53 am57 °FLow clouds.No wind93%30.06 "Hg10 mi
7:53 am56 °FFog.5 mph97%30.05 "Hg3 mi
7:31 am56 °FLow clouds.5 mph97%30.06 "Hg9 mi
6:53 am56 °FFog.5 mph93%30.03 "Hg3 mi
5:53 am56 °FLow clouds.3 mph93%30.01 "Hg10 mi
4:53 am56 °FLow clouds.5 mph97%29.98 "Hg10 mi
3:53 am56 °FLow clouds.3 mph97%29.97 "Hg10 mi
2:53 am56 °FPassing clouds.6 mph97%29.96 "Hg10 mi
2:43 am56 °FPassing clouds.7 mph97%29.98 "Hg10 mi
1:53 am54 °FClear.5 mph97%29.95 "Hg10 mi
12:53 am55 °FClear.3 mph96%29.96 "Hg10 mi
11:53 pm
Sat, Jul 13
56 °FClear.3 mph93%29.96 "Hg10 mi
10:53 pm57 °FClear.5 mph93%29.98 "Hg10 mi
9:53 pm58 °FClear.3 mph90%29.96 "Hg10 mi
8:53 pm60 °FClear.13 mph83%29.94 "Hg10 mi
7:53 pm66 °FSunny.8 mph68%29.93 "Hg10 mi
Weather by CustomWeather, © 2024

See weather overview